Time;durP1;ratioP1;P1;durP2;ratioP2;P2;SDS_P1;SDS_P2;PMS_P1;PMS_P2;Temp;Humidity;BMP_temperature;BMP_pressure;BME280_temperature;BME280_humidity;BME280_pressure;Samples;Min_cycle;Max_cycle;Signal;HPM_P1;HPM_P2
2022/01/05 00:01:06;;;;;;;0.90;0.90;;;0.80;99.90;;;;;;5052535;28;20099;-86
2022/01/05 00:03:32;;;;;;;0.80;0.80;;;0.70;99.90;;;;;;5060180;28;20075;-86
2022/01/05 00:05:58;;;;;;;0.80;0.80;;;0.70;99.90;;;;;;5063267;28;20041;-87
2022/01/05 00:08:25;;;;;;;0.80;0.80;;;0.90;99.90;;;;;;5062859;28;20068;-87
2022/01/05 00:10:52;;;;;;;0.80;0.80;;;0.60;99.90;;;;;;5060730;28;20033;-87
2022/01/05 00:13:18;;;;;;;0.85;0.85;;;0.70;99.90;;;;;;5077007;28;20127;-86
2022/01/05 00:15:43;;;;;;;0.70;0.70;;;0.70;99.90;;;;;;5071195;28;20064;-87
2022/01/05 00:18:09;;;;;;;0.90;0.90;;;0.70;99.90;;;;;;5076987;28;20048;-87
2022/01/05 00:20:35;;;;;;;0.90;0.90;;;0.70;99.90;;;;;;5072244;28;20406;-86
2022/01/05 00:23:00;;;;;;;0.80;0.80;;;0.60;99.90;;;;;;5073811;28;20041;-86
2022/01/05 00:25:26;;;;;;;0.90;0.90;;;0.60;99.90;;;;;;5071704;28;20205;-84
2022/01/05 00:27:52;;;;;;;0.80;0.80;;;;;;;;;;5075841;28;20041;-85
2022/01/05 00:30:17;;;;;;;0.80;0.80;;;0.60;99.90;;;;;;5055026;28;20100;-86
2022/01/05 00:32:43;;;;;;;0.80;0.80;;;0.60;99.90;;;;;;5065176;28;20120;-85
2022/01/05 00:35:09;;;;;;;0.80;0.80;;;0.60;99.90;;;;;;5091811;28;20409;-85
2022/01/05 00:37:35;;;;;;;0.80;0.80;;;0.60;99.90;;;;;;5051396;28;20037;-85
2022/01/05 00:40:01;;;;;;;0.90;0.90;;;0.70;99.90;;;;;;5073163;28;20067;-86
2022/01/05 00:42:26;;;;;;;5.47;1.30;;;0.70;99.90;;;;;;5058719;28;20099;-86
2022/01/05 00:44:52;;;;;;;0.90;0.90;;;0.60;99.90;;;;;;5052150;28;20033;-85
2022/01/05 00:47:17;;;;;;;0.90;0.90;;;0.60;99.90;;;;;;5059452;28;20033;-86
2022/01/05 00:49:43;;;;;;;7.55;1.65;;;0.60;99.90;;;;;;5069123;28;20072;-87
2022/01/05 00:52:09;;;;;;;0.98;0.98;;;0.50;99.90;;;;;;5057794;28;20037;-86
2022/01/05 00:54:34;;;;;;;2.47;0.90;;;0.70;99.90;;;;;;5062723;28;20060;-86
2022/01/05 00:57:00;;;;;;;1.00;1.00;;;0.70;99.90;;;;;;5056294;28;20112;-85
2022/01/05 00:59:28;;;;;;;0.80;0.80;;;0.80;99.90;;;;;;5056464;28;20088;-86
2022/01/05 01:01:54;;;;;;;1.40;1.30;;;0.90;99.90;;;;;;5061577;28;20075;-86
2022/01/05 01:04:20;;;;;;;0.80;0.80;;;0.90;99.90;;;;;;5075268;28;20056;-86
2022/01/05 01:06:45;;;;;;;0.80;0.80;;;1.00;99.90;;;;;;5057950;28;20746;-87
2022/01/05 01:09:11;;;;;;;0.90;0.90;;;0.90;99.90;;;;;;5072641;28;20129;-86
2022/01/05 01:11:36;;;;;;;0.90;0.90;;;1.00;99.90;;;;;;5054627;28;20068;-86
2022/01/05 01:14:02;;;;;;;0.80;0.80;;;1.00;99.90;;;;;;5054345;28;20048;-87
2022/01/05 01:16:28;;;;;;;0.90;0.90;;;1.00;99.90;;;;;;5076258;28;20108;-86
2022/01/05 01:18:53;;;;;;;0.80;0.80;;;1.00;99.90;;;;;;5053725;28;20052;-86
2022/01/05 01:21:19;;;;;;;0.80;0.80;;;1.10;99.90;;;;;;5052263;28;20045;-86
2022/01/05 01:23:54;;;;;;;0.80;0.80;;;1.10;99.90;;;;;;5069156;28;20039;-86
2022/01/05 01:26:21;;;;;;;1.55;1.45;;;1.10;99.90;;;;;;5067176;28;20049;-86
2022/01/05 01:28:46;;;;;;;3.42;1.75;;;1.30;99.90;;;;;;5050907;28;20049;-86
2022/01/05 01:31:12;;;;;;;0.80;0.80;;;1.30;99.90;;;;;;5072932;28;20033;-86
2022/01/05 01:33:38;;;;;;;0.80;0.80;;;1.40;99.90;;;;;;5078796;28;20040;-86
2022/01/05 01:36:03;;;;;;;0.90;0.90;;;1.40;99.90;;;;;;5058560;28;20052;-85
2022/01/05 01:38:29;;;;;;;0.80;0.80;;;1.50;99.90;;;;;;5054960;28;20173;-84
2022/01/05 01:40:55;;;;;;;0.80;0.80;;;1.50;99.90;;;;;;5058248;28;20040;-84
2022/01/05 01:43:20;;;;;;;0.90;0.90;;;1.60;99.90;;;;;;5079583;28;20042;-85
2022/01/05 01:45:46;;;;;;;0.80;0.80;;;1.60;99.90;;;;;;5070339;28;20055;-85
2022/01/05 01:48:11;;;;;;;5.45;1.75;;;1.60;99.90;;;;;;5060924;28;20064;-86
2022/01/05 01:50:37;;;;;;;0.80;0.80;;;1.60;99.90;;;;;;5054207;28;20041;-85
2022/01/05 01:53:03;;;;;;;0.80;0.80;;;1.70;99.90;;;;;;5057996;28;20329;-83
2022/01/05 01:55:28;;;;;;;0.80;0.80;;;1.70;99.90;;;;;;5073978;28;20037;-85
2022/01/05 01:57:55;;;;;;;0.70;0.70;;;1.80;99.90;;;;;;5054458;28;20080;-85
2022/01/05 02:00:21;;;;;;;0.88;0.88;;;1.90;99.90;;;;;;5060944;28;20104;-85
2022/01/05 02:02:46;;;;;;;0.80;0.80;;;1.80;99.90;;;;;;5071269;28;20535;-85
2022/01/05 02:05:12;;;;;;;0.80;0.80;;;1.90;99.90;;;;;;5053793;28;20041;-86
2022/01/05 02:07:38;;;;;;;1.00;1.00;;;1.90;99.90;;;;;;5076017;28;20064;-84
2022/01/05 02:10:06;;;;;;;0.90;0.90;;;1.80;99.90;;;;;;5058401;28;20051;-85
2022/01/05 02:12:31;;;;;;;2.17;1.73;;;1.80;99.90;;;;;;5072434;28;20043;-86
2022/01/05 02:14:57;;;;;;;0.90;0.90;;;1.80;99.90;;;;;;5081663;28;20481;-83
2022/01/05 02:17:31;;;;;;;0.98;0.98;;;1.80;99.90;;;;;;5071585;28;20037;-85
2022/01/05 02:19:56;;;;;;;1.25;1.15;;;1.80;99.90;;;;;;5059963;28;20041;-86
2022/01/05 02:22:22;;;;;;;6.45;1.25;;;1.70;99.90;;;;;;5057074;28;20104;-85
2022/01/05 02:24:48;;;;;;;1.23;1.13;;;1.70;99.90;;;;;;5072539;28;20040;-85
2022/01/05 02:27:17;;;;;;;0.90;0.90;;;1.70;99.90;;;;;;5051184;28;20045;-86
2022/01/05 02:29:44;;;;;;;0.80;0.80;;;1.80;99.90;;;;;;5076973;28;20057;-86
2022/01/05 02:32:09;;;;;;;0.90;0.90;;;2.00;99.90;;;;;;5061995;28;20100;-85
2022/01/05 02:34:35;;;;;;;0.90;0.90;;;1.90;99.90;;;;;;5075001;28;20066;-84
2022/01/05 02:37:01;;;;;;;0.90;0.90;;;1.80;99.90;;;;;;5069866;28;20059;-86
2022/01/05 02:39:26;;;;;;;0.90;0.90;;;2.10;99.90;;;;;;5070273;28;20037;-85
2022/01/05 02:41:52;;;;;;;1.27;1.23;;;1.80;99.90;;;;;;5057488;28;20059;-85
2022/01/05 02:44:19;;;;;;;0.80;0.80;;;1.90;99.90;;;;;;5059186;28;20065;-86
2022/01/05 02:46:44;;;;;;;0.82;0.82;;;1.90;99.90;;;;;;5076457;28;20041;-86
2022/01/05 02:49:10;;;;;;;1.35;1.25;;;1.90;99.90;;;;;;5078088;28;20051;-85
2022/01/05 02:51:35;;;;;;;0.90;0.90;;;1.90;99.90;;;;;;5071343;28;20037;-86
2022/01/05 02:54:02;;;;;;;0.88;0.88;;;2.00;99.90;;;;;;5061228;28;20048;-85
2022/01/05 02:56:27;;;;;;;0.95;0.95;;;2.40;99.90;;;;;;5054978;28;20059;-85
2022/01/05 02:58:53;;;;;;;0.80;0.80;;;1.90;99.90;;;;;;5072089;28;20123;-85
2022/01/05 03:01:18;;;;;;;0.90;0.90;;;1.90;99.90;;;;;;5074025;28;20041;-86
2022/01/05 03:03:44;;;;;;;0.80;0.80;;;1.90;99.90;;;;;;5057956;28;20108;-86
2022/01/05 03:06:10;;;;;;;0.80;0.80;;;1.90;99.90;;;;;;5060231;28;20093;-86
2022/01/05 03:08:35;;;;;;;0.80;0.80;;;1.90;99.90;;;;;;5067679;28;20045;-85
2022/01/05 03:11:01;;;;;;;0.90;0.90;;;1.90;99.90;;;;;;5078093;28;20079;-86
2022/01/05 03:13:27;;;;;;;0.80;0.80;;;1.90;99.90;;;;;;5071507;28;20047;-85
2022/01/05 03:15:53;;;;;;;0.80;0.80;;;2.00;99.90;;;;;;5061380;28;20045;-86
2022/01/05 03:18:19;;;;;;;0.80;0.80;;;2.10;99.90;;;;;;5076921;28;20358;-85
2022/01/05 03:20:46;;;;;;;0.90;0.90;;;2.10;99.90;;;;;;5054578;28;20044;-85
2022/01/05 03:23:12;;;;;;;1.15;1.15;;;2.30;99.90;;;;;;5074925;28;20041;-85
2022/01/05 03:25:39;;;;;;;0.80;0.80;;;2.30;99.90;;;;;;5064421;28;20651;-85
2022/01/05 03:28:05;;;;;;;0.80;0.80;;;2.40;99.90;;;;;;5074969;28;20051;-86
2022/01/05 03:30:31;;;;;;;0.80;0.80;;;2.50;99.90;;;;;;5076877;28;20072;-85
2022/01/05 03:35:28;;;;;;;0.70;0.70;;;2.60;99.90;;;;;;5068766;28;20052;-86
2022/01/05 03:37:54;;;;;;;0.77;0.77;;;2.70;99.90;;;;;;5061536;28;20037;-86
2022/01/05 03:40:20;;;;;;;0.80;0.80;;;2.80;99.90;;;;;;5063812;28;20040;-86
2022/01/05 03:42:46;;;;;;;1.55;1.45;;;2.80;99.90;;;;;;5068490;28;20389;-84
2022/01/05 03:45:12;;;;;;;1.58;1.10;;;2.70;99.90;;;;;;5075158;28;20041;-86
2022/01/05 03:47:38;;;;;;;1.27;1.25;;;2.80;99.90;;;;;;5059409;28;20052;-83
2022/01/05 03:50:04;;;;;;;1.02;1.02;;;2.80;99.90;;;;;;5072581;28;20350;-85
2022/01/05 03:52:29;;;;;;;1.00;1.00;;;2.90;99.90;;;;;;5054060;28;20047;-85
2022/01/05 03:54:55;;;;;;;0.60;0.60;;;2.80;99.90;;;;;;5056990;28;20127;-87
2022/01/05 03:57:21;;;;;;;0.80;0.80;;;2.90;99.90;;;;;;5063451;28;20063;-84
2022/01/05 03:59:46;;;;;;;0.75;0.75;;;2.90;99.90;;;;;;5066321;28;20072;-85
2022/01/05 04:02:12;;;;;;;3.47;3.15;;;2.90;99.90;;;;;;5073583;28;20045;-86
2022/01/05 04:04:38;;;;;;;0.75;0.75;;;2.90;99.90;;;;;;5053928;28;20037;-86
2022/01/05 04:07:04;;;;;;;0.80;0.80;;;3.00;99.90;;;;;;5074095;28;20036;-87
2022/01/05 04:09:30;;;;;;;0.80;0.80;;;3.20;99.90;;;;;;5061250;28;20040;-86
2022/01/05 04:11:55;;;;;;;0.93;0.90;;;2.90;99.90;;;;;;5053202;28;20389;-86
2022/01/05 04:14:21;;;;;;;0.80;0.80;;;2.90;99.90;;;;;;5059028;28;20041;-84
2022/01/05 04:16:46;;;;;;;0.60;0.60;;;3.10;99.90;;;;;;5075895;28;20050;-86
2022/01/05 04:19:12;;;;;;;1.02;1.02;;;3.10;99.90;;;;;;5062981;28;20055;-85
2022/01/05 04:21:37;;;;;;;0.80;0.80;;;3.20;99.90;;;;;;5078999;28;20043;-85
2022/01/05 04:24:03;;;;;;;0.80;0.80;;;3.10;99.90;;;;;;5076443;28;20499;-86
2022/01/05 04:26:29;;;;;;;0.80;0.80;;;3.20;99.90;;;;;;5074032;28;20041;-86
2022/01/05 04:28:54;;;;;;;0.80;0.80;;;3.20;99.90;;;;;;5055344;28;20110;-84
2022/01/05 04:31:20;;;;;;;0.80;0.80;;;3.10;99.90;;;;;;5047850;28;20074;-83
2022/01/05 04:33:45;;;;;;;0.75;0.75;;;3.10;99.90;;;;;;5077570;28;20040;-86
2022/01/05 04:36:11;;;;;;;0.80;0.80;;;3.00;99.90;;;;;;5049086;28;20045;-87
2022/01/05 04:38:36;;;;;;;0.80;0.80;;;2.90;99.90;;;;;;5075387;28;20033;-87
2022/01/05 04:41:02;;;;;;;0.80;0.80;;;2.80;99.90;;;;;;5057790;28;20045;-85
2022/01/05 04:43:28;;;;;;;0.80;0.80;;;2.70;99.90;;;;;;5069611;28;20196;-84
2022/01/05 04:45:53;;;;;;;0.80;0.80;;;2.70;99.90;;;;;;5074543;28;20052;-85
2022/01/05 04:48:20;;;;;;;0.80;0.80;;;2.70;99.90;;;;;;5066598;28;20041;-85
2022/01/05 04:50:45;;;;;;;0.80;0.80;;;2.70;99.90;;;;;;5056669;28;20067;-85
2022/01/05 04:53:13;;;;;;;0.80;0.80;;;2.70;99.90;;;;;;5072489;28;20044;-85
2022/01/05 04:55:42;;;;;;;4.55;3.08;;;2.70;99.90;;;;;;5076602;28;20060;-85
2022/01/05 04:58:08;;;;;;;0.80;0.80;;;2.80;99.90;;;;;;5052962;28;20048;-86
2022/01/05 05:00:34;;;;;;;1.77;1.10;;;2.70;99.90;;;;;;5056538;28;20033;-86
2022/01/05 05:02:59;;;;;;;1.48;1.38;;;2.80;99.90;;;;;;5077733;28;20061;-83
2022/01/05 05:05:26;;;;;;;1.88;1.20;;;2.70;99.90;;;;;;5072754;28;20083;-86
2022/01/05 05:07:51;;;;;;;0.80;0.80;;;2.70;99.90;;;;;;5078784;28;20075;-85
2022/01/05 05:10:17;;;;;;;0.80;0.80;;;2.70;99.90;;;;;;5052608;28;20037;-83
2022/01/05 05:12:43;;;;;;;1.05;1.05;;;2.70;99.90;;;;;;5070490;28;20085;-84
2022/01/05 05:15:08;;;;;;;0.80;0.80;;;2.80;99.90;;;;;;5060340;28;20424;-83
2022/01/05 05:17:34;;;;;;;0.80;0.80;;;2.80;99.90;;;;;;5058134;28;20036;-83
2022/01/05 05:20:00;;;;;;;1.33;1.23;;;2.70;99.90;;;;;;5059102;28;20395;-84
2022/01/05 05:22:25;;;;;;;0.80;0.80;;;2.80;99.90;;;;;;5064108;28;20100;-86
2022/01/05 05:24:51;;;;;;;1.25;1.13;;;2.70;99.90;;;;;;5078256;28;20036;-85
2022/01/05 05:27:16;;;;;;;0.80;0.80;;;2.80;99.90;;;;;;5067370;28;20041;-86
2022/01/05 05:29:42;;;;;;;0.80;0.80;;;2.80;99.90;;;;;;5063388;28;20104;-85
2022/01/05 05:32:08;;;;;;;5.80;1.90;;;2.80;99.90;;;;;;5061631;28;20041;-85
2022/01/05 05:34:34;;;;;;;0.70;0.70;;;2.90;99.90;;;;;;5077168;28;20534;-86
2022/01/05 05:37:00;;;;;;;0.80;0.80;;;2.90;99.90;;;;;;5077577;28;20052;-85
2022/01/05 05:39:25;;;;;;;1.00;1.00;;;3.00;99.90;;;;;;5072816;28;20104;-84
2022/01/05 05:41:51;;;;;;;0.80;0.80;;;3.10;99.90;;;;;;5076155;28;20075;-85
2022/01/05 05:44:17;;;;;;;1.63;1.52;;;3.30;99.90;;;;;;5077056;28;20123;-83
2022/01/05 05:46:42;;;;;;;0.80;0.80;;;3.20;99.90;;;;;;5068619;28;20055;-85
2022/01/05 05:49:08;;;;;;;0.80;0.80;;;3.20;99.90;;;;;;5063086;28;20052;-82
2022/01/05 05:51:33;;;;;;;2.05;1.23;;;3.20;99.90;;;;;;5077880;28;20037;-85
2022/01/05 05:53:59;;;;;;;0.70;0.70;;;3.20;99.90;;;;;;5058844;28;20469;-83
2022/01/05 05:56:25;;;;;;;0.80;0.80;;;3.10;99.90;;;;;;5074712;28;20045;-84
2022/01/05 05:58:51;;;;;;;0.70;0.70;;;3.10;99.90;;;;;;5069753;28;20040;-84
2022/01/05 06:01:17;;;;;;;0.80;0.80;;;3.10;99.90;;;;;;5077572;28;20087;-86
2022/01/05 06:03:43;;;;;;;1.40;1.10;;;3.20;99.90;;;;;;5077326;28;20489;-85
2022/01/05 06:06:09;;;;;;;0.75;0.75;;;3.20;99.90;;;;;;5068703;28;20060;-85
2022/01/05 06:08:34;;;;;;;0.82;0.82;;;3.10;99.90;;;;;;5076582;28;20460;-85
2022/01/05 06:11:00;;;;;;;1.10;1.00;;;3.30;99.90;;;;;;5075359;28;20464;-85
2022/01/05 06:13:26;;;;;;;0.80;0.80;;;3.20;99.90;;;;;;5068213;28;20039;-85
2022/01/05 06:15:51;;;;;;;0.80;0.80;;;3.20;99.90;;;;;;5055314;28;20072;-86
2022/01/05 06:18:17;;;;;;;0.75;0.75;;;3.30;99.90;;;;;;5068587;28;20056;-86
2022/01/05 06:20:42;;;;;;;1.05;1.05;;;3.30;99.90;;;;;;5074352;28;20430;-87
2022/01/05 06:23:08;;;;;;;1.20;1.10;;;3.40;99.90;;;;;;5055283;28;20068;-85
2022/01/05 06:25:34;;;;;;;0.70;0.70;;;3.20;99.90;;;;;;5048141;28;20033;-86
2022/01/05 06:28:00;;;;;;;0.70;0.70;;;3.20;99.90;;;;;;5068913;28;20072;-85
2022/01/05 06:30:28;;;;;;;0.80;0.80;;;3.20;99.90;;;;;;5053957;28;20037;-85
2022/01/05 06:32:54;;;;;;;0.80;0.80;;;3.20;99.90;;;;;;5055473;28;20045;-86
2022/01/05 06:35:23;;;;;;;0.73;0.73;;;3.20;99.90;;;;;;5059977;28;20079;-85
2022/01/05 06:37:50;;;;;;;6.63;1.50;;;3.30;99.90;;;;;;5049948;28;20037;-82
2022/01/05 06:40:16;;;;;;;0.70;0.70;;;3.30;99.90;;;;;;5069008;28;20052;-86
2022/01/05 06:42:42;;;;;;;0.90;0.90;;;3.30;99.90;;;;;;5070930;28;20044;-85
2022/01/05 06:45:08;;;;;;;1.13;1.13;;;3.40;99.90;;;;;;5075623;28;20056;-85
2022/01/05 06:47:33;;;;;;;1.85;1.42;;;3.50;99.90;;;;;;5057877;28;20072;-86
2022/01/05 06:49:59;;;;;;;0.73;0.73;;;3.50;99.90;;;;;;5057018;28;20041;-86
2022/01/05 06:52:25;;;;;;;0.80;0.80;;;3.60;99.90;;;;;;5058177;28;20595;-84
2022/01/05 06:54:51;;;;;;;0.80;0.80;;;3.50;99.90;;;;;;5063147;28;20037;-84
2022/01/05 06:57:17;;;;;;;0.90;0.90;;;3.60;99.90;;;;;;5060185;28;20111;-86
2022/01/05 06:59:42;;;;;;;0.80;0.80;;;3.70;99.90;;;;;;5073314;28;20125;-86
2022/01/05 07:02:08;;;;;;;0.80;0.80;;;3.70;99.90;;;;;;5061369;28;20048;-84
2022/01/05 07:04:34;;;;;;;0.80;0.80;;;3.60;99.90;;;;;;5053825;28;20136;-82
2022/01/05 07:07:00;;;;;;;15.05;5.70;;;3.70;99.90;;;;;;5066708;28;20049;-85
2022/01/05 07:09:28;;;;;;;0.80;0.80;;;3.60;99.90;;;;;;5074027;28;20098;-86
2022/01/05 07:11:54;;;;;;;0.70;0.70;;;3.60;99.90;;;;;;5058975;28;20044;-85
2022/01/05 07:14:19;;;;;;;1.33;1.33;;;3.60;99.90;;;;;;5048766;28;20080;-86
2022/01/05 07:16:45;;;;;;;1.48;1.38;;;3.60;99.90;;;;;;5078292;28;20051;-85
2022/01/05 07:19:11;;;;;;;0.70;0.70;;;3.60;99.90;;;;;;5082580;28;20385;-84
2022/01/05 07:21:36;;;;;;;0.70;0.70;;;3.60;99.90;;;;;;5077254;28;20052;-83
2022/01/05 07:24:03;;;;;;;0.77;0.77;;;3.50;99.90;;;;;;5057682;28;20053;-82
2022/01/05 07:26:31;;;;;;;0.95;0.95;;;3.60;99.90;;;;;;5075651;28;20060;-83
2022/01/05 07:28:57;;;;;;;0.80;0.80;;;3.60;99.90;;;;;;5072372;28;20044;-83
2022/01/05 07:31:23;;;;;;;0.90;0.90;;;3.50;99.90;;;;;;5067677;28;20129;-82
2022/01/05 07:33:48;;;;;;;0.80;0.80;;;3.50;99.90;;;;;;5072690;28;20063;-82
2022/01/05 07:36:14;;;;;;;0.73;0.73;;;3.50;99.90;;;;;;5076460;28;20122;-83
2022/01/05 07:38:40;;;;;;;0.80;0.80;;;3.50;99.90;;;;;;5056876;28;20045;-82
2022/01/05 07:41:05;;;;;;;0.82;0.82;;;3.60;99.90;;;;;;5072931;28;20044;-84
2022/01/05 07:43:31;;;;;;;0.77;0.77;;;3.60;99.90;;;;;;5074084;28;20041;-84
2022/01/05 07:45:56;;;;;;;0.90;0.90;;;3.60;99.90;;;;;;5072398;28;20102;-83
2022/01/05 07:48:22;;;;;;;0.80;0.80;;;3.50;99.90;;;;;;5064566;28;20041;-82
2022/01/05 07:50:48;;;;;;;0.70;0.70;;;3.40;99.90;;;;;;5063837;28;20085;-84
2022/01/05 07:53:13;;;;;;;2.85;1.25;;;3.40;99.90;;;;;;5068333;28;20033;-82
2022/01/05 07:55:39;;;;;;;0.80;0.80;;;3.50;99.90;;;;;;5072607;28;20089;-83
2022/01/05 07:58:06;;;;;;;1.02;1.00;;;3.30;99.90;;;;;;5067694;28;20067;-84
2022/01/05 08:00:31;;;;;;;1.33;1.25;;;3.40;99.90;;;;;;5055759;28;20052;-82
2022/01/05 08:02:57;;;;;;;0.70;0.70;;;3.50;99.90;;;;;;5060900;28;20090;-84
2022/01/05 08:05:23;;;;;;;0.70;0.70;;;3.60;99.90;;;;;;5062694;28;20045;-82
2022/01/05 08:07:48;;;;;;;0.80;0.80;;;3.70;99.90;;;;;;5045159;28;20037;-83
2022/01/05 08:10:14;;;;;;;1.70;1.60;;;3.70;99.90;;;;;;5068177;28;20048;-83
2022/01/05 08:12:41;;;;;;;0.77;0.77;;;3.80;99.90;;;;;;5048866;28;20041;-82
2022/01/05 08:15:08;;;;;;;0.80;0.80;;;3.90;99.90;;;;;;5063465;28;20048;-83
2022/01/05 08:17:34;;;;;;;0.90;0.90;;;3.90;99.90;;;;;;5067499;28;20050;-84
2022/01/05 08:20:01;;;;;;;1.25;1.15;;;4.00;99.90;;;;;;5072858;28;20066;-84
2022/01/05 08:22:26;;;;;;;2.22;1.10;;;4.00;99.90;;;;;;5068876;28;20075;-86
2022/01/05 08:24:52;;;;;;;0.80;0.80;;;4.00;99.90;;;;;;5070185;28;20077;-82
2022/01/05 08:27:17;;;;;;;0.80;0.80;;;4.00;99.90;;;;;;5077077;28;20055;-84
2022/01/05 08:29:46;;;;;;;0.70;0.70;;;4.00;99.90;;;;;;5068337;28;20721;-84
2022/01/05 08:32:11;;;;;;;0.75;0.75;;;4.10;99.90;;;;;;5050046;28;20040;-83
2022/01/05 08:34:37;;;;;;;0.77;0.77;;;4.00;99.90;;;;;;5044283;28;20033;-83
2022/01/05 08:37:03;;;;;;;0.73;0.73;;;4.10;99.90;;;;;;5066375;28;20048;-81
2022/01/05 08:39:28;;;;;;;0.70;0.70;;;4.10;99.90;;;;;;5069986;28;20072;-81
2022/01/05 08:41:54;;;;;;;0.70;0.70;;;4.20;99.90;;;;;;5073913;28;20551;-81
2022/01/05 08:44:19;;;;;;;0.70;0.70;;;4.20;99.90;;;;;;5072959;28;20424;-82
2022/01/05 08:46:45;;;;;;;0.68;0.68;;;4.30;99.90;;;;;;5077214;28;20055;-82
2022/01/05 08:49:11;;;;;;;0.70;0.70;;;4.40;99.90;;;;;;5070547;28;20064;-82
2022/01/05 08:51:38;;;;;;;0.70;0.70;;;4.50;99.90;;;;;;5060263;28;20393;-84
2022/01/05 08:54:05;;;;;;;1.00;1.00;;;4.60;99.90;;;;;;5059519;28;20048;-82
2022/01/05 08:56:31;;;;;;;0.75;0.75;;;4.50;99.90;;;;;;5067686;28;20056;-82
2022/01/05 08:58:56;;;;;;;0.80;0.80;;;4.60;99.90;;;;;;5052094;28;20045;-81
2022/01/05 09:01:23;;;;;;;0.60;0.60;;;4.60;99.90;;;;;;5066085;28;20704;-81
2022/01/05 09:03:49;;;;;;;0.63;0.63;;;4.60;99.90;;;;;;5065539;28;20083;-83
2022/01/05 09:06:14;;;;;;;0.70;0.70;;;4.60;99.90;;;;;;5075408;28;20040;-82
2022/01/05 09:08:40;;;;;;;0.90;0.90;;;4.60;99.90;;;;;;5070552;28;20501;-83
2022/01/05 09:11:08;;;;;;;0.70;0.70;;;4.60;99.90;;;;;;5066002;28;20079;-83
2022/01/05 09:13:34;;;;;;;1.20;1.08;;;4.50;99.90;;;;;;5057467;28;20032;-85
2022/01/05 09:16:00;;;;;;;0.75;0.75;;;4.50;99.90;;;;;;5070826;28;20074;-84
2022/01/05 09:18:25;;;;;;;0.70;0.70;;;4.40;99.90;;;;;;5073643;28;20037;-82
2022/01/05 09:20:52;;;;;;;0.60;0.60;;;4.30;99.90;;;;;;5087228;28;20043;-86
2022/01/05 09:23:17;;;;;;;1.60;1.50;;;4.20;99.90;;;;;;5054718;28;20134;-82
2022/01/05 09:25:46;;;;;;;0.60;0.60;;;4.20;99.90;;;;;;5073930;28;20037;-82
2022/01/05 09:28:12;;;;;;;0.70;0.70;;;4.10;99.90;;;;;;5069056;28;20045;-83
2022/01/05 09:30:37;;;;;;;0.85;0.85;;;4.20;99.90;;;;;;5062672;28;20101;-83
2022/01/05 09:33:03;;;;;;;1.13;1.13;;;4.10;99.90;;;;;;5050893;28;20053;-83
2022/01/05 09:35:29;;;;;;;0.80;0.80;;;4.10;99.90;;;;;;5063656;28;20059;-84
2022/01/05 09:38:09;;;;;;;0.70;0.70;;;4.10;99.90;;;;;;5067012;28;20048;-85
2022/01/05 09:43:21;;;;;;;0.70;0.70;;;4.20;99.90;;;;;;5074738;28;20075;-81
2022/01/05 09:46:16;;;;;;;0.80;0.80;;;4.40;99.90;;;;;;5075646;28;20045;-81
2022/01/05 09:48:50;;;;;;;0.80;0.80;;;4.60;99.90;;;;;;5076274;28;20558;-81
2022/01/05 09:51:19;;;;;;;0.70;0.70;;;4.70;99.90;;;;;;5068708;28;20053;-81
2022/01/05 09:53:45;;;;;;;9.20;2.70;;;4.70;99.90;;;;;;5070088;28;20116;-82
2022/01/05 09:56:11;;;;;;;0.70;0.70;;;4.80;99.90;;;;;;5055152;28;20048;-82
2022/01/05 09:58:39;;;;;;;0.80;0.80;;;4.90;99.90;;;;;;5066365;28;20192;-83
2022/01/05 10:01:05;;;;;;;0.80;0.80;;;4.90;99.90;;;;;;5072288;28;20063;-81
2022/01/05 10:03:31;;;;;;;0.70;0.70;;;4.90;99.90;;;;;;5056388;28;20036;-82
2022/01/05 10:05:56;;;;;;;0.70;0.70;;;4.90;99.90;;;;;;5073457;28;20334;-83
2022/01/05 10:08:22;;;;;;;0.70;0.70;;;5.00;99.90;;;;;;5072487;28;20100;-82
2022/01/05 10:10:48;;;;;;;0.70;0.70;;;4.90;99.90;;;;;;5076648;28;20052;-83
2022/01/05 10:13:15;;;;;;;0.70;0.70;;;5.00;99.90;;;;;;5069350;28;20044;-84
2022/01/05 10:15:41;;;;;;;0.70;0.70;;;5.10;99.90;;;;;;5076203;28;20102;-83
2022/01/05 10:18:15;;;;;;;0.82;0.82;;;5.10;99.90;;;;;;5076717;28;20461;-83
2022/01/05 10:21:01;;;;;;;1.17;1.17;;;5.10;99.90;;;;;;5076508;28;20174;-83
2022/01/05 10:23:34;;;;;;;0.80;0.80;;;5.10;99.90;;;;;;5076696;28;20044;-83
2022/01/05 10:26:20;;;;;;;0.67;0.67;;;5.10;99.90;;;;;;5061003;28;20045;-82
2022/01/05 10:28:46;;;;;;;0.70;0.70;;;5.10;99.90;;;;;;5078881;28;20372;-83
2022/01/05 10:31:21;;;;;;;1.17;1.02;;;5.20;99.90;;;;;;5064569;28;20033;-81
2022/01/05 10:33:47;;;;;;;0.70;0.70;;;5.30;99.90;;;;;;5065054;28;20435;-81
2022/01/05 10:36:13;;;;;;;0.70;0.70;;;5.30;99.90;;;;;;5063082;28;20030;-81
2022/01/05 10:38:49;;;;;;;0.68;0.68;;;5.40;99.90;;;;;;5070905;28;20043;-80
2022/01/05 10:41:16;;;;;;;1.70;1.60;;;5.50;99.90;;;;;;5073433;28;20037;-81
2022/01/05 10:44:08;;;;;;;0.95;0.85;;;5.60;99.90;;;;;;5067082;28;20036;-82
2022/01/05 10:46:39;;;;;;;0.77;0.77;;;5.60;99.90;;;;;;5063771;28;20037;-81
2022/01/05 10:49:05;;;;;;;0.60;0.60;;;5.70;99.90;;;;;;5063290;28;20131;-81
2022/01/05 10:51:32;;;;;;;0.60;0.60;;;5.80;99.90;;;;;;5064125;28;20354;-80
2022/01/05 10:54:18;;;;;;;0.90;0.90;;;5.90;99.90;;;;;;5076768;28;20047;-81
2022/01/05 10:56:44;;;;;;;0.60;0.60;;;6.00;99.90;;;;;;5074288;28;20044;-81
2022/01/05 10:59:11;;;;;;;1.52;1.42;;;6.00;99.90;;;;;;5067708;28;20032;-81
2022/01/05 11:01:37;;;;;;;1.05;1.05;;;6.10;99.90;;;;;;5074995;28;20041;-81
2022/01/05 11:04:16;;;;;;;0.60;0.60;;;6.20;99.90;;;;;;5075031;28;20041;-82
2022/01/05 11:07:03;;;;;;;0.77;0.77;;;6.20;99.90;;;;;;5066422;28;20054;-82
2022/01/05 11:09:30;;;;;;;1.70;1.60;;;6.20;99.90;;;;;;5058760;28;20055;-81
2022/01/05 11:11:57;;;;;;;0.60;0.60;;;6.20;99.90;;;;;;5064186;28;20056;-81
2022/01/05 11:14:34;;;;;;;0.68;0.68;;;6.20;99.90;;;;;;5067000;28;20041;-82
2022/01/05 11:17:03;;;;;;;6.43;1.40;;;6.20;99.90;;;;;;5070187;28;20104;-82
2022/01/05 11:19:31;;;;;;;0.65;0.65;;;6.30;99.90;;;;;;5069530;28;20048;-81
2022/01/05 11:22:02;;;;;;;1.00;1.00;;;6.20;99.90;;;;;;5072225;28;20136;-80
2022/01/05 11:24:31;;;;;;;0.60;0.60;;;6.30;99.90;;;;;;5070875;28;20104;-81
2022/01/05 11:26:57;;;;;;;0.60;0.60;;;6.30;99.90;;;;;;5076790;28;20067;-81
2022/01/05 11:29:23;;;;;;;0.60;0.60;;;6.30;99.90;;;;;;5075551;28;20067;-81
2022/01/05 11:31:49;;;;;;;1.35;0.65;;;6.30;99.90;;;;;;5069828;28;20036;-81
2022/01/05 11:34:15;;;;;;;1.42;1.33;;;6.30;99.90;;;;;;5076104;28;20432;-80
2022/01/05 11:36:42;;;;;;;0.70;0.70;;;6.30;99.90;;;;;;5063306;28;20045;-81
2022/01/05 11:39:08;;;;;;;0.70;0.70;;;6.30;99.90;;;;;;5075598;28;20378;-82
2022/01/05 11:41:39;;;;;;;0.70;0.70;;;6.40;99.90;;;;;;5071275;28;20045;-81
2022/01/05 11:44:06;;;;;;;0.73;0.73;;;6.40;99.90;;;;;;5070471;28;20137;-81
2022/01/05 11:46:31;;;;;;;0.68;0.68;;;6.40;99.90;;;;;;5074244;28;20469;-81
2022/01/05 11:49:00;;;;;;;0.68;0.68;;;6.50;99.90;;;;;;5074472;28;20077;-81
2022/01/05 11:51:48;;;;;;;0.70;0.70;;;6.50;99.90;;;;;;5078854;28;20041;-81
2022/01/05 11:54:30;;;;;;;3.35;1.35;;;6.50;99.90;;;;;;5076045;28;20115;-80
2022/01/05 11:57:11;;;;;;;2.05;1.10;;;6.60;99.90;;;;;;5047349;28;20045;-82
2022/01/05 11:59:41;;;;;;;0.70;0.70;;;6.70;99.90;;;;;;5069429;28;20056;-82
2022/01/05 12:02:15;;;;;;;1.60;1.50;;;6.70;99.90;;;;;;5057298;28;20044;-83
2022/01/05 12:05:00;;;;;;;1.45;1.23;;;6.60;99.90;;;;;;5067463;28;20115;-83
2022/01/05 12:07:46;;;;;;;20.52;1.15;;;6.50;99.90;;;;;;5078088;28;20049;-83
2022/01/05 12:10:23;;;;;;;0.70;0.70;;;6.50;99.90;;;;;;5067489;28;20041;-82
2022/01/05 12:13:06;;;;;;;0.68;0.68;;;6.50;99.90;;;;;;5073375;28;20037;-83
2022/01/05 12:16:01;;;;;;;0.70;0.70;;;6.50;99.90;;;;;;5084550;28;20057;-82
2022/01/05 12:18:36;;;;;;;0.80;0.80;;;6.60;99.90;;;;;;5040213;28;20053;-83
2022/01/05 12:21:01;;;;;;;1.17;1.08;;;6.80;99.90;;;;;;5076106;28;20037;-82
2022/01/05 12:23:30;;;;;;;0.70;0.70;;;6.90;99.90;;;;;;5061013;28;20040;-82
2022/01/05 12:26:12;;;;;;;1.33;1.23;;;7.00;99.90;;;;;;5067426;28;20041;-80
2022/01/05 12:28:50;;;;;;;0.75;0.75;;;7.00;99.90;;;;;;5072914;28;20051;-80
2022/01/05 12:31:15;;;;;;;0.70;0.70;;;6.90;99.90;;;;;;5073657;28;20047;-80
2022/01/05 12:33:46;;;;;;;0.60;0.60;;;6.90;99.90;;;;;;5073993;28;20041;-81
2022/01/05 12:36:15;;;;;;;0.77;0.77;;;6.70;99.90;;;;;;5075725;28;20076;-83
2022/01/05 12:38:48;;;;;;;0.60;0.60;;;6.60;99.90;;;;;;5077401;28;20032;-82
2022/01/05 12:41:40;;;;;;;0.60;0.60;;;6.50;99.90;;;;;;5072889;28;20037;-82
2022/01/05 12:44:13;;;;;;;0.60;0.60;;;6.40;99.90;;;;;;5072412;28;20120;-83
2022/01/05 12:46:48;;;;;;;0.60;0.60;;;6.30;99.90;;;;;;5079595;28;20136;-82
2022/01/05 12:49:22;;;;;;;0.60;0.60;;;6.40;99.90;;;;;;5071416;28;20060;-82
2022/01/05 12:51:51;;;;;;;0.65;0.65;;;6.40;99.90;;;;;;5074345;28;20033;-81
2022/01/05 12:54:28;;;;;;;0.60;0.60;;;6.40;99.90;;;;;;5073095;28;20615;-80
2022/01/05 12:57:02;;;;;;;0.57;0.57;;;6.30;99.90;;;;;;5071155;28;20064;-83
2022/01/05 12:59:31;;;;;;;0.60;0.60;;;6.30;99.90;;;;;;5059322;28;20049;-81
2022/01/05 13:02:16;;;;;;;0.90;0.90;;;6.20;99.90;;;;;;5080110;28;20158;-81
2022/01/05 13:04:45;;;;;;;0.55;0.55;;;6.10;99.90;;;;;;5077868;28;20044;-81